sensor_id;sensor_type;location;lat;lon;timestamp;temperature;humidity
15343;DHT22;7771;48.478;8.936;2023-03-31T00:01:36;12.30;99.90
15343;DHT22;7771;48.478;8.936;2023-03-31T00:04:03;12.30;99.90
15343;DHT22;7771;48.478;8.936;2023-03-31T00:06:31;12.30;99.90
15343;DHT22;7771;48.478;8.936;2023-03-31T00:08:57;12.20;99.90
15343;DHT22;7771;48.478;8.936;2023-03-31T00:11:24;12.20;99.90
15343;DHT22;7771;48.478;8.936;2023-03-31T00:13:52;12.20;99.90
15343;DHT22;7771;48.478;8.936;2023-03-31T00:16:20;12.20;99.90
15343;DHT22;7771;48.478;8.936;2023-03-31T00:18:46;12.20;99.90
15343;DHT22;7771;48.478;8.936;2023-03-31T00:21:14;12.20;99.90
15343;DHT22;7771;48.478;8.936;2023-03-31T00:23:40;12.20;99.90
15343;DHT22;7771;48.478;8.936;2023-03-31T00:26:07;12.10;99.90
15343;DHT22;7771;48.478;8.936;2023-03-31T00:28:35;12.10;99.90
15343;DHT22;7771;48.478;8.936;2023-03-31T00:31:02;12.10;99.90
15343;DHT22;7771;48.478;8.936;2023-03-31T00:33:30;12.10;99.90
15343;DHT22;7771;48.478;8.936;2023-03-31T00:35:57;12.00;99.90
15343;DHT22;7771;48.478;8.936;2023-03-31T00:38:23;12.10;99.90
15343;DHT22;7771;48.478;8.936;2023-03-31T00:40:51;12.10;99.90
15343;DHT22;7771;48.478;8.936;2023-03-31T00:43:23;12.10;99.90
15343;DHT22;7771;48.478;8.936;2023-03-31T00:45:47;12.10;99.90
15343;DHT22;7771;48.478;8.936;2023-03-31T00:48:15;12.10;99.90
15343;DHT22;7771;48.478;8.936;2023-03-31T00:50:46;12.00;99.90
15343;DHT22;7771;48.478;8.936;2023-03-31T00:53:11;12.00;99.90
15343;DHT22;7771;48.478;8.936;2023-03-31T00:55:39;12.10;99.90
15343;DHT22;7771;48.478;8.936;2023-03-31T00:58:04;12.00;99.90
15343;DHT22;7771;48.478;8.936;2023-03-31T01:00:32;12.00;99.90
15343;DHT22;7771;48.478;8.936;2023-03-31T01:03:01;12.00;99.90
15343;DHT22;7771;48.478;8.936;2023-03-31T01:05:39;12.00;99.90
15343;DHT22;7771;48.478;8.936;2023-03-31T01:08:05;12.00;99.90
15343;DHT22;7771;48.478;8.936;2023-03-31T01:10:33;12.00;99.90
15343;DHT22;7771;48.478;8.936;2023-03-31T01:13:00;12.00;99.90
15343;DHT22;7771;48.478;8.936;2023-03-31T01:15:27;12.00;99.90
15343;DHT22;7771;48.478;8.936;2023-03-31T01:17:55;12.00;99.90
15343;DHT22;7771;48.478;8.936;2023-03-31T01:20:35;12.10;99.90
15343;DHT22;7771;48.478;8.936;2023-03-31T01:25:51;12.00;99.90
15343;DHT22;7771;48.478;8.936;2023-03-31T01:28:29;12.00;99.90
15343;DHT22;7771;48.478;8.936;2023-03-31T01:33:44;12.10;99.90
15343;DHT22;7771;48.478;8.936;2023-03-31T01:36:33;12.10;99.90
15343;DHT22;7771;48.478;8.936;2023-03-31T01:39:11;12.10;99.90
15343;DHT22;7771;48.478;8.936;2023-03-31T01:41:40;12.10;99.90
15343;DHT22;7771;48.478;8.936;2023-03-31T01:46:44;12.30;99.90
15343;DHT22;7771;48.478;8.936;2023-03-31T01:49:13;12.40;99.90
15343;DHT22;7771;48.478;8.936;2023-03-31T01:52:48;12.40;99.90
15343;DHT22;7771;48.478;8.936;2023-03-31T01:54:27;12.50;99.90
15343;DHT22;7771;48.478;8.936;2023-03-31T01:56:56;12.50;99.90
15343;DHT22;7771;48.478;8.936;2023-03-31T01:59:27;12.60;99.90
15343;DHT22;7771;48.478;8.936;2023-03-31T02:01:57;12.60;99.90
15343;DHT22;7771;48.478;8.936;2023-03-31T02:04:23;12.60;99.90
15343;DHT22;7771;48.478;8.936;2023-03-31T02:06:50;12.60;99.90
15343;DHT22;7771;48.478;8.936;2023-03-31T02:09:17;12.50;99.90
15343;DHT22;7771;48.478;8.936;2023-03-31T02:11:43;12.50;99.90
15343;DHT22;7771;48.478;8.936;2023-03-31T02:14:11;12.50;99.90
15343;DHT22;7771;48.478;8.936;2023-03-31T02:16:38;12.60;99.90
15343;DHT22;7771;48.478;8.936;2023-03-31T02:19:04;12.50;99.90
15343;DHT22;7771;48.478;8.936;2023-03-31T02:21:31;12.50;99.90
15343;DHT22;7771;48.478;8.936;2023-03-31T02:23:58;12.50;99.90
15343;DHT22;7771;48.478;8.936;2023-03-31T02:26:24;12.50;99.90
15343;DHT22;7771;48.478;8.936;2023-03-31T02:28:50;12.40;99.90
15343;DHT22;7771;48.478;8.936;2023-03-31T02:31:35;12.40;99.90
15343;DHT22;7771;48.478;8.936;2023-03-31T02:34:00;12.40;99.90
15343;DHT22;7771;48.478;8.936;2023-03-31T02:36:26;12.40;99.90
15343;DHT22;7771;48.478;8.936;2023-03-31T02:38:55;12.40;99.90
15343;DHT22;7771;48.478;8.936;2023-03-31T02:41:21;12.40;99.90
15343;DHT22;7771;48.478;8.936;2023-03-31T02:43:49;12.40;99.90
15343;DHT22;7771;48.478;8.936;2023-03-31T02:46:16;12.40;99.90
15343;DHT22;7771;48.478;8.936;2023-03-31T02:48:44;12.40;99.90
15343;DHT22;7771;48.478;8.936;2023-03-31T02:59:38;12.30;99.90
15343;DHT22;7771;48.478;8.936;2023-03-31T03:02:07;12.20;99.90
15343;DHT22;7771;48.478;8.936;2023-03-31T03:04:58;12.20;99.90
15343;DHT22;7771;48.478;8.936;2023-03-31T03:07:29;12.20;99.90
15343;DHT22;7771;48.478;8.936;2023-03-31T03:10:00;12.10;99.90
15343;DHT22;7771;48.478;8.936;2023-03-31T03:12:32;12.00;99.90
15343;DHT22;7771;48.478;8.936;2023-03-31T03:15:02;12.00;99.90
15343;DHT22;7771;48.478;8.936;2023-03-31T03:17:31;12.00;99.90
15343;DHT22;7771;48.478;8.936;2023-03-31T03:19:58;11.90;99.90
15343;DHT22;7771;48.478;8.936;2023-03-31T03:22:24;11.90;99.90
15343;DHT22;7771;48.478;8.936;2023-03-31T03:24:51;11.80;99.90
15343;DHT22;7771;48.478;8.936;2023-03-31T03:27:18;11.70;99.90
15343;DHT22;7771;48.478;8.936;2023-03-31T03:29:44;11.70;99.90
15343;DHT22;7771;48.478;8.936;2023-03-31T03:32:11;11.60;99.90
15343;DHT22;7771;48.478;8.936;2023-03-31T03:34:39;11.60;99.90
15343;DHT22;7771;48.478;8.936;2023-03-31T03:37:06;11.50;99.90
15343;DHT22;7771;48.478;8.936;2023-03-31T03:39:32;11.50;99.90
15343;DHT22;7771;48.478;8.936;2023-03-31T03:42:00;11.40;99.90
15343;DHT22;7771;48.478;8.936;2023-03-31T03:44:26;11.40;99.90
15343;DHT22;7771;48.478;8.936;2023-03-31T03:46:54;11.30;99.90
15343;DHT22;7771;48.478;8.936;2023-03-31T03:49:21;11.30;99.90
15343;DHT22;7771;48.478;8.936;2023-03-31T03:51:48;11.20;99.90
15343;DHT22;7771;48.478;8.936;2023-03-31T03:54:14;11.10;99.90
15343;DHT22;7771;48.478;8.936;2023-03-31T03:56:41;11.00;99.90
15343;DHT22;7771;48.478;8.936;2023-03-31T03:59:09;11.00;99.90
15343;DHT22;7771;48.478;8.936;2023-03-31T04:01:36;10.90;99.90
15343;DHT22;7771;48.478;8.936;2023-03-31T04:04:04;10.90;99.90
15343;DHT22;7771;48.478;8.936;2023-03-31T04:06:31;10.80;99.90
15343;DHT22;7771;48.478;8.936;2023-03-31T04:08:58;10.90;99.90
15343;DHT22;7771;48.478;8.936;2023-03-31T04:11:24;10.80;99.90
15343;DHT22;7771;48.478;8.936;2023-03-31T04:13:53;10.70;99.90
15343;DHT22;7771;48.478;8.936;2023-03-31T04:16:20;10.80;99.90
15343;DHT22;7771;48.478;8.936;2023-03-31T04:18:47;10.80;99.90
15343;DHT22;7771;48.478;8.936;2023-03-31T04:21:14;10.80;99.90
15343;DHT22;7771;48.478;8.936;2023-03-31T04:23:41;10.80;99.90
15343;DHT22;7771;48.478;8.936;2023-03-31T04:26:09;10.70;99.90
15343;DHT22;7771;48.478;8.936;2023-03-31T04:28:36;10.80;99.90
15343;DHT22;7771;48.478;8.936;2023-03-31T04:31:03;10.70;99.90
15343;DHT22;7771;48.478;8.936;2023-03-31T04:33:29;10.70;99.90
15343;DHT22;7771;48.478;8.936;2023-03-31T04:35:56;10.80;99.90
15343;DHT22;7771;48.478;8.936;2023-03-31T04:38:23;10.70;99.90
15343;DHT22;7771;48.478;8.936;2023-03-31T04:40:50;10.80;99.90
15343;DHT22;7771;48.478;8.936;2023-03-31T04:43:18;10.80;99.90
15343;DHT22;7771;48.478;8.936;2023-03-31T04:45:44;10.80;99.90
15343;DHT22;7771;48.478;8.936;2023-03-31T04:48:11;10.80;99.90
15343;DHT22;7771;48.478;8.936;2023-03-31T04:50:38;10.80;99.90
15343;DHT22;7771;48.478;8.936;2023-03-31T04:53:05;10.90;99.90
15343;DHT22;7771;48.478;8.936;2023-03-31T04:55:31;10.90;99.90
15343;DHT22;7771;48.478;8.936;2023-03-31T04:57:58;10.90;99.90
15343;DHT22;7771;48.478;8.936;2023-03-31T05:00:25;10.90;99.90
15343;DHT22;7771;48.478;8.936;2023-03-31T05:02:52;10.90;99.90
15343;DHT22;7771;48.478;8.936;2023-03-31T05:05:19;11.00;99.90
15343;DHT22;7771;48.478;8.936;2023-03-31T05:07:46;11.00;99.90
15343;DHT22;7771;48.478;8.936;2023-03-31T05:10:13;11.00;99.90
15343;DHT22;7771;48.478;8.936;2023-03-31T05:12:40;11.00;99.90
15343;DHT22;7771;48.478;8.936;2023-03-31T05:15:07;11.00;99.90
15343;DHT22;7771;48.478;8.936;2023-03-31T05:17:34;11.10;99.90
15343;DHT22;7771;48.478;8.936;2023-03-31T05:20:01;11.10;99.90
15343;DHT22;7771;48.478;8.936;2023-03-31T05:22:28;11.00;99.90
15343;DHT22;7771;48.478;8.936;2023-03-31T05:24:55;11.10;99.90
15343;DHT22;7771;48.478;8.936;2023-03-31T05:27:22;11.10;99.90
15343;DHT22;7771;48.478;8.936;2023-03-31T05:29:49;11.10;99.90
15343;DHT22;7771;48.478;8.936;2023-03-31T05:32:16;11.10;99.90
15343;DHT22;7771;48.478;8.936;2023-03-31T05:34:43;11.10;99.90
15343;DHT22;7771;48.478;8.936;2023-03-31T05:37:10;11.10;99.90
15343;DHT22;7771;48.478;8.936;2023-03-31T05:39:36;11.00;99.90
15343;DHT22;7771;48.478;8.936;2023-03-31T05:42:03;11.10;99.90
15343;DHT22;7771;48.478;8.936;2023-03-31T05:44:30;11.10;99.90
15343;DHT22;7771;48.478;8.936;2023-03-31T05:46:56;11.10;99.90
15343;DHT22;7771;48.478;8.936;2023-03-31T05:49:23;11.00;99.90
15343;DHT22;7771;48.478;8.936;2023-03-31T05:51:50;11.10;99.90
15343;DHT22;7771;48.478;8.936;2023-03-31T05:54:17;11.10;99.90
15343;DHT22;7771;48.478;8.936;2023-03-31T05:56:43;11.00;99.90
15343;DHT22;7771;48.478;8.936;2023-03-31T05:59:10;11.10;99.90
15343;DHT22;7771;48.478;8.936;2023-03-31T06:01:37;11.10;99.90
15343;DHT22;7771;48.478;8.936;2023-03-31T06:04:05;11.10;99.90
15343;DHT22;7771;48.478;8.936;2023-03-31T06:06:31;11.10;99.90
15343;DHT22;7771;48.478;8.936;2023-03-31T06:08:58;11.20;99.90
15343;DHT22;7771;48.478;8.936;2023-03-31T06:11:25;11.10;99.90
15343;DHT22;7771;48.478;8.936;2023-03-31T06:13:52;11.20;99.90
15343;DHT22;7771;48.478;8.936;2023-03-31T06:16:18;11.20;99.90
15343;DHT22;7771;48.478;8.936;2023-03-31T06:18:45;11.20;99.90
15343;DHT22;7771;48.478;8.936;2023-03-31T06:21:13;11.20;99.90
15343;DHT22;7771;48.478;8.936;2023-03-31T06:23:39;11.20;99.90
15343;DHT22;7771;48.478;8.936;2023-03-31T06:26:07;11.20;99.90
15343;DHT22;7771;48.478;8.936;2023-03-31T06:28:34;11.20;99.90
15343;DHT22;7771;48.478;8.936;2023-03-31T06:31:01;11.30;99.90
15343;DHT22;7771;48.478;8.936;2023-03-31T06:33:28;11.30;99.90
15343;DHT22;7771;48.478;8.936;2023-03-31T06:35:55;11.30;99.90
15343;DHT22;7771;48.478;8.936;2023-03-31T06:38:22;11.30;99.90
15343;DHT22;7771;48.478;8.936;2023-03-31T06:40:50;11.30;99.90
15343;DHT22;7771;48.478;8.936;2023-03-31T06:43:17;11.30;99.90
15343;DHT22;7771;48.478;8.936;2023-03-31T06:45:44;11.30;99.90
15343;DHT22;7771;48.478;8.936;2023-03-31T06:48:10;11.30;99.90
15343;DHT22;7771;48.478;8.936;2023-03-31T06:50:37;11.30;99.90
15343;DHT22;7771;48.478;8.936;2023-03-31T06:53:04;11.30;99.90
15343;DHT22;7771;48.478;8.936;2023-03-31T06:55:30;11.30;99.90
15343;DHT22;7771;48.478;8.936;2023-03-31T06:57:57;11.30;99.90
15343;DHT22;7771;48.478;8.936;2023-03-31T07:00:24;11.30;99.90
15343;DHT22;7771;48.478;8.936;2023-03-31T07:02:53;11.40;99.90
15343;DHT22;7771;48.478;8.936;2023-03-31T07:05:19;11.50;99.90
15343;DHT22;7771;48.478;8.936;2023-03-31T07:07:46;11.50;99.90
15343;DHT22;7771;48.478;8.936;2023-03-31T07:10:13;11.50;99.90
15343;DHT22;7771;48.478;8.936;2023-03-31T07:12:40;11.50;99.90
15343;DHT22;7771;48.478;8.936;2023-03-31T07:15:07;11.50;99.90
15343;DHT22;7771;48.478;8.936;2023-03-31T07:17:34;11.50;99.90
15343;DHT22;7771;48.478;8.936;2023-03-31T07:20:02;11.50;99.90
15343;DHT22;7771;48.478;8.936;2023-03-31T07:22:29;11.50;99.90
15343;DHT22;7771;48.478;8.936;2023-03-31T07:24:56;11.60;99.90
15343;DHT22;7771;48.478;8.936;2023-03-31T07:27:22;11.70;99.90
15343;DHT22;7771;48.478;8.936;2023-03-31T07:29:49;11.80;99.90
15343;DHT22;7771;48.478;8.936;2023-03-31T07:32:16;11.80;99.90
15343;DHT22;7771;48.478;8.936;2023-03-31T07:34:42;11.90;99.90
15343;DHT22;7771;48.478;8.936;2023-03-31T07:37:09;11.90;99.90
15343;DHT22;7771;48.478;8.936;2023-03-31T07:39:36;12.00;99.90
15343;DHT22;7771;48.478;8.936;2023-03-31T07:42:02;12.20;99.90
15343;DHT22;7771;48.478;8.936;2023-03-31T07:44:31;12.60;99.90
15343;DHT22;7771;48.478;8.936;2023-03-31T07:46:57;13.00;99.90
15343;DHT22;7771;48.478;8.936;2023-03-31T07:49:23;13.30;99.90
15343;DHT22;7771;48.478;8.936;2023-03-31T07:51:50;13.40;99.90
15343;DHT22;7771;48.478;8.936;2023-03-31T07:54:16;13.40;99.90
15343;DHT22;7771;48.478;8.936;2023-03-31T07:56:43;13.50;99.90
15343;DHT22;7771;48.478;8.936;2023-03-31T07:59:10;13.60;99.90
15343;DHT22;7771;48.478;8.936;2023-03-31T08:01:37;13.70;99.90
15343;DHT22;7771;48.478;8.936;2023-03-31T08:04:03;13.90;99.90
15343;DHT22;7771;48.478;8.936;2023-03-31T08:06:30;14.10;99.90
15343;DHT22;7771;48.478;8.936;2023-03-31T08:08:58;14.40;99.90
15343;DHT22;7771;48.478;8.936;2023-03-31T08:11:24;14.70;99.90
15343;DHT22;7771;48.478;8.936;2023-03-31T08:13:52;15.00;99.90
15343;DHT22;7771;48.478;8.936;2023-03-31T08:16:19;15.30;99.90
15343;DHT22;7771;48.478;8.936;2023-03-31T08:18:46;15.60;99.90
15343;DHT22;7771;48.478;8.936;2023-03-31T08:21:13;15.90;99.90
15343;DHT22;7771;48.478;8.936;2023-03-31T08:23:41;16.10;99.90
15343;DHT22;7771;48.478;8.936;2023-03-31T08:26:12;16.40;99.90
15343;DHT22;7771;48.478;8.936;2023-03-31T08:28:38;16.70;99.90
15343;DHT22;7771;48.478;8.936;2023-03-31T08:31:06;16.90;99.90
15343;DHT22;7771;48.478;8.936;2023-03-31T08:33:32;17.10;99.90
15343;DHT22;7771;48.478;8.936;2023-03-31T08:36:02;17.30;99.90
15343;DHT22;7771;48.478;8.936;2023-03-31T08:38:27;17.30;99.90
15343;DHT22;7771;48.478;8.936;2023-03-31T08:41:01;17.50;99.90
15343;DHT22;7771;48.478;8.936;2023-03-31T08:43:30;17.90;99.90
15343;DHT22;7771;48.478;8.936;2023-03-31T08:45:54;18.00;99.90
15343;DHT22;7771;48.478;8.936;2023-03-31T08:48:38;18.00;99.90
15343;DHT22;7771;48.478;8.936;2023-03-31T08:51:08;18.10;99.90
15343;DHT22;7771;48.478;8.936;2023-03-31T08:53:35;18.20;99.90
15343;DHT22;7771;48.478;8.936;2023-03-31T08:56:01;18.40;99.90
15343;DHT22;7771;48.478;8.936;2023-03-31T08:58:33;18.50;99.90
15343;DHT22;7771;48.478;8.936;2023-03-31T09:03:49;18.60;99.90
15343;DHT22;7771;48.478;8.936;2023-03-31T09:06:15;18.70;99.90
15343;DHT22;7771;48.478;8.936;2023-03-31T09:08:40;18.80;99.90
15343;DHT22;7771;48.478;8.936;2023-03-31T09:11:10;19.00;99.90
15343;DHT22;7771;48.478;8.936;2023-03-31T09:13:56;19.00;99.90
15343;DHT22;7771;48.478;8.936;2023-03-31T09:16:25;19.00;99.60
15343;DHT22;7771;48.478;8.936;2023-03-31T09:18:51;19.00;99.90
15343;DHT22;7771;48.478;8.936;2023-03-31T09:21:26;19.10;99.90
15343;DHT22;7771;48.478;8.936;2023-03-31T09:24:10;19.20;99.30
15343;DHT22;7771;48.478;8.936;2023-03-31T09:26:39;19.20;99.00
15343;DHT22;7771;48.478;8.936;2023-03-31T09:29:06;19.10;99.40
15343;DHT22;7771;48.478;8.936;2023-03-31T09:31:31;19.10;99.10
15343;DHT22;7771;48.478;8.936;2023-03-31T09:33:59;19.00;99.10
15343;DHT22;7771;48.478;8.936;2023-03-31T09:36:24;18.90;98.70
15343;DHT22;7771;48.478;8.936;2023-03-31T09:38:51;18.80;98.80
15343;DHT22;7771;48.478;8.936;2023-03-31T09:41:18;18.70;98.90
15343;DHT22;7771;48.478;8.936;2023-03-31T09:43:45;18.70;98.90
15343;DHT22;7771;48.478;8.936;2023-03-31T09:46:21;18.50;98.80
15343;DHT22;7771;48.478;8.936;2023-03-31T09:49:01;18.30;98.60
15343;DHT22;7771;48.478;8.936;2023-03-31T09:51:28;18.20;98.60
15343;DHT22;7771;48.478;8.936;2023-03-31T09:54:00;18.10;99.00
15343;DHT22;7771;48.478;8.936;2023-03-31T09:56:31;18.00;98.90
15343;DHT22;7771;48.478;8.936;2023-03-31T09:58:59;18.00;98.80
15343;DHT22;7771;48.478;8.936;2023-03-31T10:01:24;18.00;99.20
15343;DHT22;7771;48.478;8.936;2023-03-31T10:03:51;18.00;98.80
15343;DHT22;7771;48.478;8.936;2023-03-31T10:06:18;18.10;98.80
15343;DHT22;7771;48.478;8.936;2023-03-31T10:08:56;18.20;98.10
15343;DHT22;7771;48.478;8.936;2023-03-31T10:11:23;18.20;97.80
15343;DHT22;7771;48.478;8.936;2023-03-31T10:14:01;18.30;96.80
15343;DHT22;7771;48.478;8.936;2023-03-31T10:16:30;18.30;96.90
15343;DHT22;7771;48.478;8.936;2023-03-31T10:19:10;18.30;96.60
15343;DHT22;7771;48.478;8.936;2023-03-31T10:21:25;18.30;96.60
15343;DHT22;7771;48.478;8.936;2023-03-31T10:23:50;18.40;96.40
15343;DHT22;7771;48.478;8.936;2023-03-31T10:26:19;18.40;95.60
15343;DHT22;7771;48.478;8.936;2023-03-31T10:28:44;18.40;95.70
15343;DHT22;7771;48.478;8.936;2023-03-31T10:31:11;18.50;95.70
15343;DHT22;7771;48.478;8.936;2023-03-31T10:33:39;18.60;95.70
15343;DHT22;7771;48.478;8.936;2023-03-31T10:36:07;18.70;95.50
15343;DHT22;7771;48.478;8.936;2023-03-31T10:38:38;18.80;95.20
15343;DHT22;7771;48.478;8.936;2023-03-31T10:41:05;18.90;94.60
15343;DHT22;7771;48.478;8.936;2023-03-31T10:43:36;19.00;94.50
15343;DHT22;7771;48.478;8.936;2023-03-31T10:46:02;19.00;94.80
15343;DHT22;7771;48.478;8.936;2023-03-31T10:48:30;19.10;94.60
15343;DHT22;7771;48.478;8.936;2023-03-31T10:51:04;19.20;94.60
15343;DHT22;7771;48.478;8.936;2023-03-31T10:53:26;19.40;94.00
15343;DHT22;7771;48.478;8.936;2023-03-31T10:56:14;19.60;93.60
15343;DHT22;7771;48.478;8.936;2023-03-31T11:01:39;19.90;91.30
15343;DHT22;7771;48.478;8.936;2023-03-31T11:04:11;19.80;90.30
15343;DHT22;7771;48.478;8.936;2023-03-31T11:12:26;18.90;91.60
15343;DHT22;7771;48.478;8.936;2023-03-31T11:20:13;15.90;99.90
15343;DHT22;7771;48.478;8.936;2023-03-31T11:22:41;15.00;99.90
15343;DHT22;7771;48.478;8.936;2023-03-31T11:25:14;14.30;99.90
15343;DHT22;7771;48.478;8.936;2023-03-31T11:28:02;13.80;99.90
15343;DHT22;7771;48.478;8.936;2023-03-31T11:30:29;13.30;99.90
15343;DHT22;7771;48.478;8.936;2023-03-31T11:40:53;12.00;99.90
15343;DHT22;7771;48.478;8.936;2023-03-31T11:43:31;11.80;99.90
15343;DHT22;7771;48.478;8.936;2023-03-31T11:46:09;11.70;99.90
15343;DHT22;7771;48.478;8.936;2023-03-31T11:51:15;11.70;99.90
15343;DHT22;7771;48.478;8.936;2023-03-31T11:53:41;11.70;99.90
15343;DHT22;7771;48.478;8.936;2023-03-31T11:56:08;11.90;99.90
15343;DHT22;7771;48.478;8.936;2023-03-31T11:58:37;12.00;99.90
15343;DHT22;7771;48.478;8.936;2023-03-31T12:01:08;12.10;99.90
15343;DHT22;7771;48.478;8.936;2023-03-31T12:03:50;12.30;99.90
15343;DHT22;7771;48.478;8.936;2023-03-31T12:06:15;12.40;99.90
15343;DHT22;7771;48.478;8.936;2023-03-31T12:08:57;12.50;99.90
15343;DHT22;7771;48.478;8.936;2023-03-31T12:11:31;12.60;99.90
15343;DHT22;7771;48.478;8.936;2023-03-31T12:14:19;12.60;99.90
15343;DHT22;7771;48.478;8.936;2023-03-31T12:16:44;12.80;99.90
15343;DHT22;7771;48.478;8.936;2023-03-31T12:19:32;12.90;99.90
15343;DHT22;7771;48.478;8.936;2023-03-31T12:22:01;13.10;99.90
15343;DHT22;7771;48.478;8.936;2023-03-31T12:24:25;13.30;99.90
15343;DHT22;7771;48.478;8.936;2023-03-31T12:27:26;13.50;99.90
15343;DHT22;7771;48.478;8.936;2023-03-31T12:29:37;13.70;99.90
15343;DHT22;7771;48.478;8.936;2023-03-31T12:32:06;13.80;99.90
15343;DHT22;7771;48.478;8.936;2023-03-31T12:34:31;13.80;99.90
15343;DHT22;7771;48.478;8.936;2023-03-31T12:37:05;13.90;99.90
15343;DHT22;7771;48.478;8.936;2023-03-31T12:39:36;14.00;99.90
15343;DHT22;7771;48.478;8.936;2023-03-31T12:45:29;14.20;99.90
15343;DHT22;7771;48.478;8.936;2023-03-31T12:50:55;14.70;99.90
15343;DHT22;7771;48.478;8.936;2023-03-31T12:53:27;14.80;99.90
15343;DHT22;7771;48.478;8.936;2023-03-31T12:55:54;14.90;99.90
15343;DHT22;7771;48.478;8.936;2023-03-31T12:58:37;15.00;99.90
15343;DHT22;7771;48.478;8.936;2023-03-31T13:01:13;15.00;99.90
15343;DHT22;7771;48.478;8.936;2023-03-31T13:06:45;14.90;99.90
15343;DHT22;7771;48.478;8.936;2023-03-31T13:09:43;15.00;99.90
15343;DHT22;7771;48.478;8.936;2023-03-31T13:12:14;15.10;99.90
15343;DHT22;7771;48.478;8.936;2023-03-31T13:14:41;15.20;99.90
15343;DHT22;7771;48.478;8.936;2023-03-31T13:19:45;15.40;99.90
15343;DHT22;7771;48.478;8.936;2023-03-31T13:25:41;15.70;99.90
15343;DHT22;7771;48.478;8.936;2023-03-31T13:27:50;15.90;99.90
15343;DHT22;7771;48.478;8.936;2023-03-31T13:33:04;15.90;99.90
15343;DHT22;7771;48.478;8.936;2023-03-31T13:35:30;15.70;99.90
15343;DHT22;7771;48.478;8.936;2023-03-31T13:38:05;15.50;99.90
15343;DHT22;7771;48.478;8.936;2023-03-31T13:43:39;15.10;99.90
15343;DHT22;7771;48.478;8.936;2023-03-31T13:46:39;14.70;99.90
15343;DHT22;7771;48.478;8.936;2023-03-31T13:49:18;14.40;99.90
15343;DHT22;7771;48.478;8.936;2023-03-31T13:51:43;14.10;99.90
15343;DHT22;7771;48.478;8.936;2023-03-31T13:54:27;13.90;99.90
15343;DHT22;7771;48.478;8.936;2023-03-31T13:57:03;13.80;99.90
15343;DHT22;7771;48.478;8.936;2023-03-31T13:59:32;13.60;99.90
15343;DHT22;7771;48.478;8.936;2023-03-31T14:02:04;13.60;99.90
15343;DHT22;7771;48.478;8.936;2023-03-31T14:07:29;13.60;99.90
15343;DHT22;7771;48.478;8.936;2023-03-31T14:09:54;13.60;99.90
15343;DHT22;7771;48.478;8.936;2023-03-31T14:12:36;13.60;99.90
15343;DHT22;7771;48.478;8.936;2023-03-31T14:15:04;13.40;99.90
15343;DHT22;7771;48.478;8.936;2023-03-31T14:17:34;13.40;99.90
15343;DHT22;7771;48.478;8.936;2023-03-31T14:20:07;13.40;99.90
15343;DHT22;7771;48.478;8.936;2023-03-31T14:22:55;13.40;99.90
15343;DHT22;7771;48.478;8.936;2023-03-31T14:25:25;13.40;99.90
15343;DHT22;7771;48.478;8.936;2023-03-31T14:30:26;13.40;99.90
15343;DHT22;7771;48.478;8.936;2023-03-31T14:33:02;13.40;99.90
15343;DHT22;7771;48.478;8.936;2023-03-31T14:35:30;13.40;99.90
15343;DHT22;7771;48.478;8.936;2023-03-31T14:37:54;13.20;99.90
15343;DHT22;7771;48.478;8.936;2023-03-31T14:40:21;13.10;99.90
15343;DHT22;7771;48.478;8.936;2023-03-31T14:42:47;13.00;99.90
15343;DHT22;7771;48.478;8.936;2023-03-31T14:45:19;12.90;99.90
15343;DHT22;7771;48.478;8.936;2023-03-31T14:47:52;12.80;99.90
15343;DHT22;7771;48.478;8.936;2023-03-31T14:50:19;12.70;99.90
15343;DHT22;7771;48.478;8.936;2023-03-31T14:55:14;12.70;99.90
15343;DHT22;7771;48.478;8.936;2023-03-31T14:57:41;12.70;99.90
15343;DHT22;7771;48.478;8.936;2023-03-31T15:00:10;12.70;99.90
15343;DHT22;7771;48.478;8.936;2023-03-31T15:02:37;12.70;99.90
15343;DHT22;7771;48.478;8.936;2023-03-31T15:05:04;12.80;99.90
15343;DHT22;7771;48.478;8.936;2023-03-31T15:07:31;12.80;99.90
15343;DHT22;7771;48.478;8.936;2023-03-31T15:09:58;12.90;99.90
15343;DHT22;7771;48.478;8.936;2023-03-31T15:12:25;12.90;99.90
15343;DHT22;7771;48.478;8.936;2023-03-31T15:14:54;13.00;99.90
15343;DHT22;7771;48.478;8.936;2023-03-31T15:17:24;13.10;99.90
15343;DHT22;7771;48.478;8.936;2023-03-31T15:19:54;13.10;99.90
15343;DHT22;7771;48.478;8.936;2023-03-31T15:22:21;13.10;99.90
15343;DHT22;7771;48.478;8.936;2023-03-31T15:24:46;13.10;99.90
15343;DHT22;7771;48.478;8.936;2023-03-31T15:27:15;13.10;99.90
15343;DHT22;7771;48.478;8.936;2023-03-31T15:29:42;13.10;99.90
15343;DHT22;7771;48.478;8.936;2023-03-31T15:32:12;13.20;99.90
15343;DHT22;7771;48.478;8.936;2023-03-31T15:34:37;13.20;99.90
15343;DHT22;7771;48.478;8.936;2023-03-31T15:37:05;13.20;99.90
15343;DHT22;7771;48.478;8.936;2023-03-31T15:39:31;13.30;99.90
15343;DHT22;7771;48.478;8.936;2023-03-31T15:41:59;13.30;99.90
15343;DHT22;7771;48.478;8.936;2023-03-31T15:44:34;13.40;99.90
15343;DHT22;7771;48.478;8.936;2023-03-31T15:47:00;11.70;99.90
15343;DHT22;7771;48.478;8.936;2023-03-31T15:49:26;13.40;99.90
15343;DHT22;7771;48.478;8.936;2023-03-31T15:51:53;13.40;99.90
15343;DHT22;7771;48.478;8.936;2023-03-31T15:54:28;13.30;99.90
15343;DHT22;7771;48.478;8.936;2023-03-31T15:56:55;13.30;99.90
15343;DHT22;7771;48.478;8.936;2023-03-31T15:59:21;16.30;99.90
15343;DHT22;7771;48.478;8.936;2023-03-31T16:01:47;13.30;99.90
15343;DHT22;7771;48.478;8.936;2023-03-31T16:04:14;13.40;99.90
15343;DHT22;7771;48.478;8.936;2023-03-31T16:06:44;13.40;99.90
15343;DHT22;7771;48.478;8.936;2023-03-31T16:09:15;13.40;99.90
15343;DHT22;7771;48.478;8.936;2023-03-31T16:11:45;13.40;99.90
15343;DHT22;7771;48.478;8.936;2023-03-31T16:14:14;13.40;99.90
15343;DHT22;7771;48.478;8.936;2023-03-31T16:16:39;13.50;99.90
15343;DHT22;7771;48.478;8.936;2023-03-31T16:19:07;13.40;99.90
15343;DHT22;7771;48.478;8.936;2023-03-31T16:21:35;13.50;99.90
15343;DHT22;7771;48.478;8.936;2023-03-31T16:24:01;13.40;99.90
15343;DHT22;7771;48.478;8.936;2023-03-31T16:26:28;13.40;99.90
15343;DHT22;7771;48.478;8.936;2023-03-31T16:28:55;13.40;99.90
15343;DHT22;7771;48.478;8.936;2023-03-31T16:31:32;13.40;99.90
15343;DHT22;7771;48.478;8.936;2023-03-31T16:33:59;13.30;99.90
15343;DHT22;7771;48.478;8.936;2023-03-31T16:36:26;13.10;99.90
15343;DHT22;7771;48.478;8.936;2023-03-31T16:38:53;12.90;99.90
15343;DHT22;7771;48.478;8.936;2023-03-31T16:41:20;12.70;99.90
15343;DHT22;7771;48.478;8.936;2023-03-31T16:43:46;12.40;99.90
15343;DHT22;7771;48.478;8.936;2023-03-31T16:46:13;12.30;99.90
15343;DHT22;7771;48.478;8.936;2023-03-31T16:48:40;12.10;99.90
15343;DHT22;7771;48.478;8.936;2023-03-31T16:51:07;12.00;99.90
15343;DHT22;7771;48.478;8.936;2023-03-31T16:53:34;11.90;99.90
15343;DHT22;7771;48.478;8.936;2023-03-31T16:56:01;11.90;99.90
15343;DHT22;7771;48.478;8.936;2023-03-31T16:58:28;11.90;99.90
15343;DHT22;7771;48.478;8.936;2023-03-31T17:00:55;11.90;99.90
15343;DHT22;7771;48.478;8.936;2023-03-31T17:03:21;11.80;99.90
15343;DHT22;7771;48.478;8.936;2023-03-31T17:05:50;11.80;99.90
15343;DHT22;7771;48.478;8.936;2023-03-31T17:08:17;11.80;99.90